createdAt,value
2019-04-03T00:01:46.389Z,16.40
2019-04-03T00:04:15.284Z,16.97
2019-04-03T00:06:44.071Z,19.90
2019-04-03T00:09:12.817Z,20.47
2019-04-03T00:11:41.614Z,19.80
2019-04-03T00:14:12.212Z,21.12
2019-04-03T00:16:40.897Z,21.80
2019-04-03T00:19:09.741Z,20.02
2019-04-03T00:21:38.493Z,21.53
2019-04-03T00:24:07.277Z,22.70
2019-04-03T00:26:36.103Z,22.00
2019-04-03T00:29:04.944Z,20.77
2019-04-03T00:31:33.824Z,20.43
2019-04-03T00:34:02.545Z,22.83
2019-04-03T00:36:31.319Z,22.43
2019-04-03T00:39:00.104Z,22.10
2019-04-03T00:41:28.865Z,17.33
2019-04-03T00:43:57.614Z,24.10
2019-04-03T00:46:26.358Z,20.63
2019-04-03T00:48:55.868Z,21.30
2019-04-03T00:51:27.343Z,24.43
2019-04-03T00:53:57.977Z,24.20
2019-04-03T00:56:26.845Z,21.97
2019-04-03T00:58:56.034Z,24.63
2019-04-03T01:01:26.524Z,24.87
2019-04-03T01:03:55.274Z,24.83
2019-04-03T01:06:24.030Z,22.85
2019-04-03T01:08:52.768Z,25.80
2019-04-03T01:11:21.563Z,24.40
2019-04-03T01:13:50.328Z,20.48
2019-04-03T01:16:19.110Z,14.25
2019-04-03T01:18:47.858Z,13.87
2019-04-03T01:21:16.593Z,13.23
2019-04-03T01:23:45.461Z,18.87
2019-04-03T01:26:14.198Z,17.80
2019-04-03T01:28:42.935Z,13.80
2019-04-03T01:31:14.220Z,15.88
2019-04-03T01:33:42.678Z,10.67
2019-04-03T01:36:12.428Z,16.45
2019-04-03T01:38:41.177Z,17.63
2019-04-03T01:41:09.988Z,19.10
2019-04-03T01:43:39.739Z,15.17
2019-04-03T01:46:08.499Z,15.17
2019-04-03T01:48:37.290Z,16.40
2019-04-03T01:51:06.014Z,18.23
2019-04-03T01:53:34.761Z,18.30
2019-04-03T01:56:05.135Z,19.30
2019-04-03T01:58:35.985Z,19.20
2019-04-03T02:01:08.111Z,19.87
2019-04-03T02:03:37.164Z,19.30
2019-04-03T02:06:05.936Z,20.30
2019-04-03T02:08:34.701Z,21.00
2019-04-03T02:11:03.508Z,21.63
2019-04-03T02:13:32.246Z,23.77
2019-04-03T02:16:01.085Z,23.83
2019-04-03T02:18:29.848Z,22.53
2019-04-03T02:20:58.688Z,24.93
2019-04-03T02:23:28.833Z,24.30
2019-04-03T02:25:57.935Z,22.30
2019-04-03T02:28:26.676Z,23.97
2019-04-03T02:30:55.717Z,21.67
2019-04-03T02:33:28.312Z,22.70
2019-04-03T02:35:54.966Z,22.17
2019-04-03T02:38:23.933Z,20.53
2019-04-03T02:40:52.721Z,22.67
2019-04-03T02:43:21.516Z,23.00
2019-04-03T02:45:50.361Z,22.03
2019-04-03T02:48:19.348Z,22.62
2019-04-03T02:50:48.588Z,22.60
2019-04-03T02:53:18.059Z,25.13
2019-04-03T02:55:46.832Z,23.00
2019-04-03T02:58:15.614Z,13.60
2019-04-03T03:00:44.541Z,22.87
2019-04-03T03:03:16.115Z,20.08
2019-04-03T03:05:43.764Z,20.17
2019-04-03T03:08:12.702Z,16.60
2019-04-03T03:10:41.529Z,18.63
2019-04-03T03:13:11.890Z,16.27
2019-04-03T03:15:43.895Z,13.50
2019-04-03T03:18:12.696Z,15.70
2019-04-03T03:20:42.497Z,16.40
2019-04-03T03:23:11.971Z,14.33
2019-04-03T03:25:41.272Z,13.93
2019-04-03T03:28:13.187Z,13.08
2019-04-03T03:30:50.673Z,11.93
2019-04-03T03:33:26.516Z,14.40
2019-04-03T03:35:46.856Z,13.98
2019-04-03T03:38:14.273Z,12.93
2019-04-03T03:40:47.256Z,12.03
2019-04-03T03:43:14.396Z,13.63
2019-04-03T03:45:44.769Z,16.02
2019-04-03T03:48:13.597Z,16.43
2019-04-03T03:50:43.889Z,13.87
2019-04-03T03:53:13.364Z,13.70
2019-04-03T03:55:43.709Z,12.23
2019-04-03T03:58:13.469Z,12.53
2019-04-03T04:00:42.948Z,16.10
2019-04-03T04:03:12.055Z,17.92
2019-04-03T04:05:41.829Z,16.87
2019-04-03T04:08:11.612Z,14.13
2019-04-03T04:10:41.123Z,18.37
2019-04-03T04:13:13.348Z,13.40
2019-04-03T04:15:40.519Z,13.30
2019-04-03T04:18:13.803Z,15.27
2019-04-03T04:20:40.839Z,15.65
2019-04-03T04:23:09.624Z,16.62
2019-04-03T04:25:38.436Z,13.20
2019-04-03T04:28:09.169Z,13.30
2019-04-03T04:30:38.616Z,12.58
2019-04-03T04:33:07.396Z,16.60
2019-04-03T04:35:36.410Z,17.37
2019-04-03T04:38:05.467Z,15.98
2019-04-03T04:40:34.317Z,13.00
2019-04-03T04:43:04.165Z,14.70
2019-04-03T04:45:33.925Z,13.47
2019-04-03T04:48:02.689Z,14.03
2019-04-03T04:50:32.374Z,13.57
2019-04-03T04:53:01.251Z,12.73
2019-04-03T04:55:31.311Z,12.43
2019-04-03T04:58:00.490Z,11.23
2019-04-03T05:00:30.027Z,13.57
2019-04-03T05:03:01.773Z,11.67
2019-04-03T05:05:31.152Z,11.70
2019-04-03T05:08:02.202Z,11.30
2019-04-03T05:10:31.487Z,12.00
2019-04-03T05:13:00.424Z,15.90
2019-04-03T05:15:29.391Z,13.50
2019-04-03T05:17:58.382Z,12.58
2019-04-03T05:20:27.303Z,11.60
2019-04-03T05:22:56.221Z,12.75
2019-04-03T05:25:25.032Z,11.40
2019-04-03T05:27:53.778Z,12.93
2019-04-03T05:30:36.529Z,12.00
2019-04-03T05:33:05.220Z,12.05
2019-04-03T05:35:34.011Z,12.00
2019-04-03T05:38:02.791Z,11.37
2019-04-03T05:40:31.664Z,12.00
2019-04-03T05:43:00.652Z,11.90
2019-04-03T05:45:29.457Z,13.50
2019-04-03T05:47:58.234Z,12.43
2019-04-03T05:50:27.226Z,11.83
2019-04-03T05:52:56.012Z,12.15
2019-04-03T05:55:24.888Z,12.57
2019-04-03T05:57:53.638Z,11.43
2019-04-03T06:00:22.667Z,11.20
2019-04-03T06:02:53.134Z,11.37
2019-04-03T06:05:21.879Z,11.88
2019-04-03T06:07:50.642Z,10.93
2019-04-03T06:10:19.397Z,11.73
2019-04-03T06:12:48.138Z,9.83
2019-04-03T06:15:17.316Z,11.27
2019-04-03T06:17:46.140Z,10.90
2019-04-03T06:20:15.171Z,10.97
2019-04-03T06:22:43.919Z,10.68
2019-04-03T06:25:13.937Z,11.33
2019-04-03T06:27:45.832Z,11.48
2019-04-03T06:30:15.535Z,11.97
2019-04-03T06:32:44.457Z,11.10
2019-04-03T06:35:13.642Z,11.68
2019-04-03T06:37:43.095Z,11.57
2019-04-03T06:40:12.139Z,11.90
2019-04-03T06:42:42.422Z,12.23
2019-04-03T06:45:11.598Z,14.03
2019-04-03T06:47:40.576Z,13.17
2019-04-03T06:50:11.842Z,14.07
2019-04-03T06:52:39.867Z,12.80
2019-04-03T06:55:09.540Z,13.70
2019-04-03T06:57:39.502Z,14.03
2019-04-03T07:00:08.669Z,12.40
2019-04-03T07:02:37.435Z,14.60
2019-04-03T07:05:09.575Z,14.47
2019-04-03T07:07:38.323Z,12.47
2019-04-03T07:10:09.469Z,14.87
2019-04-03T07:12:38.123Z,13.00
2019-04-03T07:15:08.451Z,14.03
2019-04-03T07:17:37.204Z,14.30
2019-04-03T07:20:14.470Z,12.80
2019-04-03T07:22:38.149Z,11.75
2019-04-03T07:25:08.641Z,13.33
2019-04-03T07:27:38.312Z,11.63
2019-04-03T07:30:09.997Z,12.43
2019-04-03T07:32:39.688Z,11.57
2019-04-03T07:35:09.753Z,11.17
2019-04-03T07:37:38.899Z,12.23
2019-04-03T07:40:08.526Z,11.30
2019-04-03T07:42:37.294Z,10.77
2019-04-03T07:45:07.803Z,11.60
2019-04-03T07:47:36.673Z,11.30
2019-04-03T07:50:10.293Z,10.53
2019-04-03T07:52:38.481Z,9.70
2019-04-03T07:55:07.853Z,11.60
2019-04-03T07:57:37.237Z,11.00
2019-04-03T08:00:08.960Z,10.70
2019-04-03T08:02:38.458Z,10.27
2019-04-03T08:05:08.817Z,10.03
2019-04-03T08:07:37.567Z,9.90
2019-04-03T08:10:07.826Z,11.80
2019-04-03T08:12:36.642Z,9.70
2019-04-03T08:15:08.096Z,11.10
2019-04-03T08:17:37.073Z,10.70
2019-04-03T08:20:08.202Z,10.20
2019-04-03T08:22:37.036Z,5.77
2019-04-03T08:25:10.627Z,6.00
2019-04-03T08:27:38.735Z,2.40
2019-04-03T08:30:10.061Z,3.10
2019-04-03T08:32:38.784Z,2.97
2019-04-03T08:35:19.969Z,1.73
2019-04-03T08:37:40.610Z,1.30
2019-04-03T08:40:09.290Z,1.37
2019-04-03T08:42:38.036Z,2.30
2019-04-03T08:45:09.667Z,3.60
2019-04-03T08:47:38.595Z,2.90
2019-04-03T08:50:11.652Z,3.30
2019-04-03T08:52:40.899Z,1.90
2019-04-03T08:55:12.906Z,2.50
2019-04-03T08:57:41.001Z,2.97
2019-04-03T09:00:12.347Z,3.30
2019-04-03T09:02:43.520Z,3.52
2019-04-03T09:05:13.763Z,3.60
2019-04-03T09:07:42.215Z,3.10
2019-04-03T09:10:13.487Z,3.77
2019-04-03T09:12:42.244Z,4.43
2019-04-03T09:15:12.556Z,4.37
2019-04-03T09:17:41.314Z,4.47
2019-04-03T09:20:12.888Z,5.00
2019-04-03T09:22:40.996Z,4.40
2019-04-03T09:25:10.021Z,4.27
2019-04-03T09:27:40.354Z,4.40
2019-04-03T09:30:11.786Z,5.13
2019-04-03T09:32:40.596Z,4.30
2019-04-03T09:35:10.442Z,4.07
2019-04-03T09:37:39.191Z,4.80
2019-04-03T09:40:08.612Z,4.47
2019-04-03T09:42:37.382Z,4.40
2019-04-03T09:45:08.719Z,4.87
2019-04-03T09:47:37.488Z,4.80
2019-04-03T09:50:08.673Z,4.80
2019-04-03T09:52:42.093Z,5.30
2019-04-03T09:55:08.337Z,4.60
2019-04-03T09:57:37.142Z,5.30
2019-04-03T10:00:10.635Z,4.30
2019-04-03T10:02:39.437Z,5.07
2019-04-03T10:05:09.229Z,5.03
2019-04-03T10:07:38.305Z,5.40
2019-04-03T10:10:09.097Z,4.87
2019-04-03T10:12:38.039Z,5.20
2019-04-03T10:15:08.411Z,5.33
2019-04-03T10:17:38.532Z,4.77
2019-04-03T10:20:10.267Z,5.07
2019-04-03T10:22:38.991Z,5.60
2019-04-03T10:25:09.313Z,5.33
2019-04-03T10:27:38.061Z,5.73
2019-04-03T10:30:12.218Z,5.50
2019-04-03T10:32:41.442Z,4.73
2019-04-03T10:35:10.968Z,4.35
2019-04-03T10:37:47.667Z,5.57
2019-04-03T10:40:17.752Z,5.90
2019-04-03T10:42:47.225Z,5.58
2019-04-03T10:45:17.414Z,5.40
2019-04-03T10:47:46.135Z,6.00
2019-04-03T10:50:15.415Z,6.00
2019-04-03T10:52:46.193Z,5.60
2019-04-03T10:55:15.825Z,5.87
2019-04-03T10:57:44.634Z,7.03
2019-04-03T11:00:15.669Z,5.87
2019-04-03T11:02:44.428Z,5.30
2019-04-03T11:05:13.983Z,5.33
2019-04-03T11:07:42.838Z,5.43
2019-04-03T11:10:12.168Z,5.80
2019-04-03T11:12:41.221Z,7.27
2019-04-03T11:15:12.649Z,6.47
2019-04-03T11:17:41.989Z,6.47
2019-04-03T11:20:14.054Z,6.22
2019-04-03T11:22:43.943Z,7.13
2019-04-03T11:25:15.307Z,8.15
2019-04-03T11:27:45.143Z,7.10
2019-04-03T11:30:19.946Z,7.67
2019-04-03T11:32:47.142Z,8.80
2019-04-03T11:35:17.244Z,9.10
2019-04-03T11:37:46.023Z,9.07
2019-04-03T11:40:18.065Z,8.97
2019-04-03T11:42:47.786Z,9.27
2019-04-03T11:45:17.094Z,9.30
2019-04-03T11:47:46.448Z,8.07
2019-04-03T11:50:18.046Z,8.30
2019-04-03T11:52:47.096Z,8.40
2019-04-03T11:55:16.027Z,9.47
2019-04-03T11:57:47.419Z,8.20
2019-04-03T12:00:24.208Z,7.90
2019-04-03T12:02:53.293Z,8.23
2019-04-03T12:05:23.040Z,9.63
2019-04-03T12:07:51.786Z,9.03
2019-04-03T12:10:20.560Z,8.10
2019-04-03T12:12:49.302Z,7.50
2019-04-03T12:15:20.205Z,7.77
2019-04-03T12:17:48.768Z,7.27
2019-04-03T12:20:17.764Z,7.70
2019-04-03T12:22:46.539Z,7.33
2019-04-03T12:25:15.705Z,6.75
2019-04-03T12:27:46.042Z,6.97
2019-04-03T12:30:16.155Z,6.50
2019-04-03T12:32:48.627Z,5.77
2019-04-03T12:35:15.489Z,7.97
2019-04-03T12:37:44.549Z,7.97
2019-04-03T12:40:14.145Z,6.47
2019-04-03T12:42:43.224Z,7.00
2019-04-03T12:45:12.298Z,5.95
2019-04-03T12:47:43.572Z,6.93
2019-04-03T12:50:13.442Z,6.23
2019-04-03T12:52:44.760Z,7.17
2019-04-03T12:55:13.031Z,6.55
2019-04-03T12:57:41.883Z,5.83
2019-04-03T13:00:13.477Z,6.23
2019-04-03T13:02:42.555Z,6.80
2019-04-03T13:05:11.378Z,6.85
2019-04-03T13:07:40.376Z,6.00
2019-04-03T13:10:10.561Z,6.50
2019-04-03T13:12:39.435Z,6.90
2019-04-03T13:15:12.585Z,6.60
2019-04-03T13:17:43.808Z,5.53
2019-04-03T13:20:12.615Z,6.40
2019-04-03T13:22:42.609Z,6.33
2019-04-03T13:25:12.870Z,6.33
2019-04-03T13:27:42.274Z,6.57
2019-04-03T13:30:13.915Z,8.03
2019-04-03T13:32:43.073Z,7.53
2019-04-03T13:35:14.598Z,7.47
2019-04-03T13:37:43.197Z,6.93
2019-04-03T13:40:12.364Z,7.63
2019-04-03T13:42:41.257Z,7.60
2019-04-03T13:45:11.804Z,7.40
2019-04-03T13:47:42.809Z,8.40
2019-04-03T13:50:11.844Z,8.40
2019-04-03T13:52:43.952Z,8.93
2019-04-03T13:55:12.153Z,8.00
2019-04-03T13:57:41.582Z,8.90
2019-04-03T14:00:20.567Z,8.88
2019-04-03T14:02:44.979Z,9.20
2019-04-03T14:05:14.493Z,8.68
2019-04-03T14:07:43.862Z,9.43
2019-04-03T14:10:12.814Z,9.40
2019-04-03T14:12:44.263Z,9.50
2019-04-03T14:15:12.148Z,10.37
2019-04-03T14:17:53.787Z,9.65
2019-04-03T14:20:13.020Z,10.23
2019-04-03T14:22:41.975Z,9.70
2019-04-03T14:25:19.369Z,10.23
2019-04-03T14:27:41.799Z,9.40
2019-04-03T14:30:12.611Z,9.48
2019-04-03T14:32:44.293Z,10.30
2019-04-03T14:35:41.251Z,10.60
2019-04-03T14:37:42.737Z,11.63
2019-04-03T14:40:12.956Z,11.40
2019-04-03T14:42:42.200Z,11.43
2019-04-03T14:45:14.574Z,10.90
2019-04-03T14:47:42.208Z,10.47
2019-04-03T14:50:12.529Z,10.50
2019-04-03T14:52:49.655Z,10.30
2019-04-03T14:55:22.307Z,11.30
2019-04-03T14:57:50.314Z,11.83
2019-04-03T15:00:27.266Z,11.20
2019-04-03T15:02:50.612Z,10.73
2019-04-03T15:05:19.738Z,10.75
2019-04-03T15:07:50.549Z,11.20
2019-04-03T15:10:20.874Z,10.50
2019-04-03T15:12:49.985Z,10.80
2019-04-03T15:15:19.176Z,10.53
2019-04-03T15:17:48.154Z,12.20
2019-04-03T15:20:18.843Z,11.50
2019-04-03T15:22:48.354Z,12.40
2019-04-03T15:25:20.288Z,12.28
2019-04-03T15:27:48.822Z,12.30
2019-04-03T15:30:18.278Z,13.30
2019-04-03T15:32:50.155Z,11.97
2019-04-03T15:35:18.795Z,12.30
2019-04-03T15:37:48.308Z,11.27
2019-04-03T15:40:18.535Z,11.53
2019-04-03T15:42:47.538Z,12.47
2019-04-03T15:45:16.892Z,11.53
2019-04-03T15:47:47.264Z,10.40
2019-04-03T15:50:17.985Z,13.00
2019-04-03T15:52:49.299Z,10.70
2019-04-03T15:55:17.727Z,11.40
2019-04-03T15:57:46.739Z,11.67
2019-04-03T16:00:21.335Z,10.80
2019-04-03T16:02:50.546Z,12.10
2019-04-03T16:05:22.217Z,11.10
2019-04-03T16:07:51.613Z,11.57
2019-04-03T16:10:23.237Z,11.80
2019-04-03T16:12:51.433Z,11.57
2019-04-03T16:15:22.458Z,10.70
2019-04-03T16:17:50.772Z,11.57
2019-04-03T16:20:19.553Z,10.23
2019-04-03T16:22:48.318Z,10.90
2019-04-03T16:25:17.881Z,12.60
2019-04-03T16:27:47.542Z,11.23
2019-04-03T16:30:18.724Z,10.10
2019-04-03T16:32:47.459Z,11.10
2019-04-03T16:35:16.277Z,10.83
2019-04-03T16:37:45.267Z,10.07
2019-04-03T16:40:15.895Z,11.03
2019-04-03T16:42:47.495Z,11.40
2019-04-03T16:45:15.662Z,10.95
2019-04-03T16:47:45.251Z,10.70
2019-04-03T16:50:15.551Z,10.90
2019-04-03T16:52:46.782Z,11.90
2019-04-03T16:55:16.749Z,10.13
2019-04-03T16:57:46.303Z,11.17
2019-04-03T17:00:17.126Z,11.60
2019-04-03T17:02:46.201Z,11.70
2019-04-03T17:05:26.035Z,10.70
2019-04-03T17:07:55.654Z,11.70
2019-04-03T17:10:27.066Z,10.83
2019-04-03T17:12:56.411Z,10.90
2019-04-03T17:15:25.238Z,10.90
2019-04-03T17:17:54.118Z,11.97
2019-04-03T17:20:23.595Z,11.73
2019-04-03T17:22:53.688Z,11.80
2019-04-03T17:25:23.398Z,11.47
2019-04-03T17:27:58.080Z,11.37
2019-04-03T17:30:26.261Z,31.47
2019-04-03T17:32:56.448Z,12.03
2019-04-03T17:35:26.640Z,10.53
2019-04-03T17:37:58.911Z,13.07
2019-04-03T17:40:26.938Z,13.00
2019-04-03T17:42:55.745Z,10.73
2019-04-03T17:45:25.130Z,11.87
2019-04-03T17:48:02.067Z,14.20
2019-04-03T17:50:31.145Z,11.60
2019-04-03T17:53:13.707Z,14.27
2019-04-03T17:55:48.544Z,14.37
2019-04-03T17:58:20.686Z,14.07
2019-04-03T18:00:52.056Z,11.57
2019-04-03T18:03:22.468Z,14.03
2019-04-03T18:05:51.384Z,14.80
2019-04-03T18:08:20.177Z,12.33
2019-04-03T18:10:49.056Z,10.47
2019-04-03T18:13:17.868Z,11.30
2019-04-03T18:15:46.618Z,10.73
2019-04-03T18:18:15.370Z,11.03
2019-04-03T18:20:44.670Z,10.67
2019-04-03T18:23:13.980Z,11.75
2019-04-03T18:25:43.776Z,12.03
2019-04-03T18:28:15.999Z,12.97
2019-04-03T18:30:45.005Z,11.80
2019-04-03T18:33:16.611Z,12.93
2019-04-03T18:35:44.428Z,11.80
2019-04-03T18:38:13.390Z,11.88
2019-04-03T18:40:46.412Z,12.00
2019-04-03T18:43:15.185Z,11.20
2019-04-03T18:45:43.970Z,10.47
2019-04-03T18:48:12.709Z,8.73
2019-04-03T18:50:41.578Z,8.27
2019-04-03T18:53:10.406Z,8.20
2019-04-03T18:55:39.136Z,11.20
2019-04-03T18:58:08.192Z,11.30
2019-04-03T19:00:36.985Z,10.88
2019-04-03T19:03:06.059Z,10.40
2019-04-03T19:05:35.676Z,9.10
2019-04-03T19:08:13.128Z,10.07
2019-04-03T19:10:34.945Z,9.00
2019-04-03T19:13:03.722Z,9.20
2019-04-03T19:15:33.678Z,10.00
2019-04-03T19:18:18.047Z,8.10
2019-04-03T19:20:48.338Z,8.33
2019-04-03T19:23:33.423Z,9.47
2019-04-03T19:26:03.328Z,8.60
2019-04-03T19:28:34.329Z,11.30
2019-04-03T19:31:16.558Z,10.57
2019-04-03T19:33:46.363Z,10.47
2019-04-03T19:36:15.204Z,10.90
2019-04-03T19:38:44.431Z,10.20
2019-04-03T19:41:13.222Z,9.60
2019-04-03T19:43:41.960Z,10.80
2019-04-03T19:46:10.730Z,11.73
2019-04-03T19:48:39.457Z,12.50
2019-04-03T19:51:08.224Z,11.30
2019-04-03T19:53:36.962Z,11.30
2019-04-03T19:56:05.737Z,11.30
2019-04-03T19:58:34.469Z,13.03
2019-04-03T20:01:05.563Z,10.20
2019-04-03T20:03:35.748Z,10.67
2019-04-03T20:06:05.350Z,9.20
2019-04-03T20:08:34.751Z,12.50
2019-04-03T20:11:06.484Z,11.25
2019-04-03T20:13:36.073Z,11.88
2019-04-03T20:16:06.366Z,13.60
2019-04-03T20:18:35.296Z,12.07
2019-04-03T20:21:04.411Z,10.53
2019-04-03T20:23:33.288Z,12.70
2019-04-03T20:26:04.615Z,11.90
2019-04-03T20:28:33.732Z,11.50
2019-04-03T20:31:03.779Z,10.90
2019-04-03T20:33:33.427Z,11.30
2019-04-03T20:36:03.111Z,11.25
2019-04-03T20:38:32.863Z,12.43
2019-04-03T20:41:03.312Z,11.50
2019-04-03T20:43:32.172Z,12.33
2019-04-03T20:46:00.906Z,12.05
2019-04-03T20:48:29.647Z,12.63
2019-04-03T20:50:58.404Z,13.67
2019-04-03T20:53:28.168Z,13.90
2019-04-03T20:55:58.126Z,14.67
2019-04-03T20:58:27.469Z,14.93
2019-04-03T21:01:06.190Z,13.57
2019-04-03T21:03:26.685Z,14.20
2019-04-03T21:05:55.943Z,13.93
2019-04-03T21:08:26.581Z,15.60
2019-04-03T21:10:55.261Z,14.15
2019-04-03T21:13:24.014Z,15.90
2019-04-03T21:15:52.936Z,15.30
2019-04-03T21:18:21.694Z,16.07
2019-04-03T21:20:50.419Z,15.40
2019-04-03T21:23:19.208Z,14.83
2019-04-03T21:25:47.962Z,16.87
2019-04-03T21:28:16.710Z,16.07
2019-04-03T21:30:45.465Z,16.97
2019-04-03T21:33:17.056Z,16.97
2019-04-03T21:35:44.786Z,14.77
2019-04-03T21:38:13.529Z,16.30
2019-04-03T21:40:42.269Z,15.87
2019-04-03T21:43:11.075Z,16.70
2019-04-03T21:45:39.934Z,17.23
2019-04-03T21:48:11.920Z,20.82
2019-04-03T21:50:41.180Z,18.90
2019-04-03T21:53:10.839Z,17.50
2019-04-03T21:55:39.653Z,16.47
2019-04-03T21:58:08.821Z,17.13
2019-04-03T22:01:00.399Z,17.80
2019-04-03T22:03:29.162Z,16.57
2019-04-03T22:05:57.905Z,16.30
2019-04-03T22:08:29.074Z,18.30
2019-04-03T22:10:57.457Z,16.43
2019-04-03T22:13:26.193Z,16.10
2019-04-03T22:15:54.950Z,17.40
2019-04-03T22:18:24.262Z,16.73
2019-04-03T22:20:53.452Z,16.97
2019-04-03T22:23:22.195Z,15.80
2019-04-03T22:25:50.932Z,16.70
2019-04-03T22:28:35.010Z,15.07
2019-04-03T22:31:05.200Z,16.37
2019-04-03T22:33:34.105Z,16.93
2019-04-03T22:36:03.350Z,16.40
2019-04-03T22:38:36.979Z,16.07
2019-04-03T22:41:03.777Z,15.77
2019-04-03T22:43:32.525Z,17.87
2019-04-03T22:46:02.494Z,16.33
2019-04-03T22:48:31.244Z,18.27
2019-04-03T22:51:00.012Z,16.63
2019-04-03T22:53:28.750Z,16.23
2019-04-03T22:55:57.525Z,16.42
2019-04-03T22:58:26.308Z,16.10
2019-04-03T23:00:55.095Z,16.70
2019-04-03T23:03:23.845Z,15.70
2019-04-03T23:05:52.728Z,15.13
2019-04-03T23:08:22.766Z,15.20
2019-04-03T23:10:52.074Z,15.23
2019-04-03T23:13:20.844Z,15.70
2019-04-03T23:15:49.570Z,16.90
2019-04-03T23:18:18.343Z,15.68
2019-04-03T23:20:47.286Z,16.60
2019-04-03T23:23:16.283Z,15.90
2019-04-03T23:25:45.101Z,16.90
2019-04-03T23:28:13.836Z,17.07
2019-04-03T23:30:42.613Z,16.30
2019-04-03T23:33:11.402Z,17.10
2019-04-03T23:35:40.140Z,16.00
2019-04-03T23:38:08.888Z,17.67
2019-04-03T23:40:37.677Z,17.00
2019-04-03T23:43:08.694Z,18.42
2019-04-03T23:45:37.044Z,17.75
2019-04-03T23:48:05.779Z,16.80
2019-04-03T23:50:34.505Z,18.20
2019-04-03T23:53:03.283Z,17.75
2019-04-03T23:55:32.452Z,17.70
2019-04-03T23:58:01.190Z,18.57
